sensor_id;sensor_type;location;lat;lon;timestamp;P1;durP1;ratioP1;P2;durP2;ratioP2
11386;SDS011;5748;53.102;8.456;2022-08-03T00:00:28;1.00;;;1.00;;
11386;SDS011;5748;53.102;8.456;2022-08-03T00:02:55;0.90;;;0.90;;
11386;SDS011;5748;53.102;8.456;2022-08-03T00:05:22;1.23;;;1.13;;
11386;SDS011;5748;53.102;8.456;2022-08-03T00:08:06;1.00;;;1.00;;
11386;SDS011;5748;53.102;8.456;2022-08-03T00:10:33;1.20;;;1.10;;
11386;SDS011;5748;53.102;8.456;2022-08-03T00:13:00;1.38;;;1.27;;
11386;SDS011;5748;53.102;8.456;2022-08-03T00:15:29;1.30;;;1.20;;
11386;SDS011;5748;53.102;8.456;2022-08-03T00:17:56;1.23;;;1.08;;
11386;SDS011;5748;53.102;8.456;2022-08-03T00:20:23;1.05;;;1.05;;
11386;SDS011;5748;53.102;8.456;2022-08-03T00:22:51;1.05;;;1.05;;
11386;SDS011;5748;53.102;8.456;2022-08-03T00:25:17;1.10;;;1.10;;
11386;SDS011;5748;53.102;8.456;2022-08-03T00:27:45;0.90;;;0.90;;
11386;SDS011;5748;53.102;8.456;2022-08-03T01:05:35;1.50;;;1.40;;
11386;SDS011;5748;53.102;8.456;2022-08-03T01:08:11;1.37;;;1.10;;
11386;SDS011;5748;53.102;8.456;2022-08-03T01:10:52;1.10;;;1.10;;
11386;SDS011;5748;53.102;8.456;2022-08-03T01:13:30;1.30;;;1.20;;
11386;SDS011;5748;53.102;8.456;2022-08-03T01:16:08;1.30;;;1.20;;
11386;SDS011;5748;53.102;8.456;2022-08-03T01:18:42;1.50;;;1.40;;
11386;SDS011;5748;53.102;8.456;2022-08-03T01:21:15;1.27;;;1.17;;
11386;SDS011;5748;53.102;8.456;2022-08-03T01:24:04;1.60;;;1.50;;
11386;SDS011;5748;53.102;8.456;2022-08-03T01:29:42;1.27;;;1.17;;
11386;SDS011;5748;53.102;8.456;2022-08-03T01:32:32;1.20;;;1.10;;
11386;SDS011;5748;53.102;8.456;2022-08-03T01:35:09;1.00;;;1.00;;
11386;SDS011;5748;53.102;8.456;2022-08-03T01:37:40;1.40;;;1.30;;
11386;SDS011;5748;53.102;8.456;2022-08-03T01:40:13;1.30;;;1.20;;
11386;SDS011;5748;53.102;8.456;2022-08-03T01:42:41;1.77;;;1.30;;
11386;SDS011;5748;53.102;8.456;2022-08-03T01:45:11;1.60;;;1.50;;
11386;SDS011;5748;53.102;8.456;2022-08-03T01:47:42;1.37;;;1.27;;
11386;SDS011;5748;53.102;8.456;2022-08-03T01:50:11;1.50;;;1.40;;
11386;SDS011;5748;53.102;8.456;2022-08-03T01:52:45;1.43;;;1.33;;
11386;SDS011;5748;53.102;8.456;2022-08-03T01:55:15;1.37;;;1.27;;
11386;SDS011;5748;53.102;8.456;2022-08-03T01:57:44;1.47;;;1.20;;
11386;SDS011;5748;53.102;8.456;2022-08-03T02:00:15;1.30;;;1.20;;
11386;SDS011;5748;53.102;8.456;2022-08-03T02:02:53;1.40;;;1.30;;
11386;SDS011;5748;53.102;8.456;2022-08-03T02:05:22;1.20;;;1.10;;
11386;SDS011;5748;53.102;8.456;2022-08-03T02:07:51;1.40;;;1.30;;
11386;SDS011;5748;53.102;8.456;2022-08-03T02:10:20;1.10;;;1.10;;
11386;SDS011;5748;53.102;8.456;2022-08-03T02:12:49;1.33;;;1.23;;
11386;SDS011;5748;53.102;8.456;2022-08-03T02:15:18;1.30;;;1.20;;
11386;SDS011;5748;53.102;8.456;2022-08-03T02:17:47;1.40;;;1.30;;
11386;SDS011;5748;53.102;8.456;2022-08-03T02:20:29;1.33;;;1.23;;
11386;SDS011;5748;53.102;8.456;2022-08-03T02:23:00;1.30;;;1.20;;
11386;SDS011;5748;53.102;8.456;2022-08-03T02:25:27;1.27;;;1.17;;
11386;SDS011;5748;53.102;8.456;2022-08-03T02:27:57;1.50;;;1.40;;
11386;SDS011;5748;53.102;8.456;2022-08-03T02:30:29;1.40;;;1.30;;
11386;SDS011;5748;53.102;8.456;2022-08-03T02:33:02;1.40;;;1.30;;
11386;SDS011;5748;53.102;8.456;2022-08-03T02:35:32;1.50;;;1.40;;
11386;SDS011;5748;53.102;8.456;2022-08-03T02:38:01;1.50;;;1.40;;
11386;SDS011;5748;53.102;8.456;2022-08-03T02:40:30;1.27;;;1.20;;
11386;SDS011;5748;53.102;8.456;2022-08-03T02:42:59;1.70;;;1.60;;
11386;SDS011;5748;53.102;8.456;2022-08-03T02:45:34;1.50;;;1.40;;
11386;SDS011;5748;53.102;8.456;2022-08-03T02:48:02;1.33;;;1.23;;
11386;SDS011;5748;53.102;8.456;2022-08-03T02:50:31;1.43;;;1.33;;
11386;SDS011;5748;53.102;8.456;2022-08-03T02:53:00;1.60;;;1.50;;
11386;SDS011;5748;53.102;8.456;2022-08-03T02:55:28;1.43;;;1.33;;
11386;SDS011;5748;53.102;8.456;2022-08-03T02:57:59;1.20;;;1.10;;
11386;SDS011;5748;53.102;8.456;2022-08-03T03:00:28;1.37;;;1.27;;
11386;SDS011;5748;53.102;8.456;2022-08-03T03:03:00;1.40;;;1.30;;
11386;SDS011;5748;53.102;8.456;2022-08-03T03:05:30;1.10;;;1.10;;
11386;SDS011;5748;53.102;8.456;2022-08-03T03:07:58;1.40;;;1.30;;
11386;SDS011;5748;53.102;8.456;2022-08-03T03:10:26;1.60;;;1.50;;
11386;SDS011;5748;53.102;8.456;2022-08-03T03:12:54;1.40;;;1.30;;
11386;SDS011;5748;53.102;8.456;2022-08-03T03:15:23;1.50;;;1.40;;
11386;SDS011;5748;53.102;8.456;2022-08-03T03:17:54;1.50;;;1.40;;
11386;SDS011;5748;53.102;8.456;2022-08-03T03:20:22;1.70;;;1.60;;
11386;SDS011;5748;53.102;8.456;2022-08-03T03:22:50;1.50;;;1.40;;
11386;SDS011;5748;53.102;8.456;2022-08-03T03:25:18;1.80;;;1.70;;
11386;SDS011;5748;53.102;8.456;2022-08-03T03:27:46;1.70;;;1.60;;
11386;SDS011;5748;53.102;8.456;2022-08-03T03:30:14;1.73;;;1.63;;
11386;SDS011;5748;53.102;8.456;2022-08-03T03:43:49;1.50;;;1.40;;
11386;SDS011;5748;53.102;8.456;2022-08-03T03:46:24;1.40;;;1.30;;
11386;SDS011;5748;53.102;8.456;2022-08-03T03:48:56;1.70;;;1.40;;
11386;SDS011;5748;53.102;8.456;2022-08-03T03:51:24;1.50;;;1.40;;
11386;SDS011;5748;53.102;8.456;2022-08-03T03:53:55;1.73;;;1.63;;
11386;SDS011;5748;53.102;8.456;2022-08-03T03:56:26;1.70;;;1.60;;
11386;SDS011;5748;53.102;8.456;2022-08-03T03:58:54;2.00;;;1.80;;
11386;SDS011;5748;53.102;8.456;2022-08-03T04:01:21;1.90;;;1.43;;
11386;SDS011;5748;53.102;8.456;2022-08-03T04:03:48;1.80;;;1.70;;
11386;SDS011;5748;53.102;8.456;2022-08-03T04:06:15;1.70;;;1.60;;
11386;SDS011;5748;53.102;8.456;2022-08-03T04:08:59;1.70;;;1.60;;
11386;SDS011;5748;53.102;8.456;2022-08-03T04:11:46;1.60;;;1.50;;
11386;SDS011;5748;53.102;8.456;2022-08-03T04:14:18;1.90;;;1.80;;
11386;SDS011;5748;53.102;8.456;2022-08-03T04:16:49;2.20;;;1.80;;
11386;SDS011;5748;53.102;8.456;2022-08-03T04:19:22;2.27;;;1.90;;
11386;SDS011;5748;53.102;8.456;2022-08-03T04:21:55;1.77;;;1.60;;
11386;SDS011;5748;53.102;8.456;2022-08-03T04:24:26;1.70;;;1.60;;
11386;SDS011;5748;53.102;8.456;2022-08-03T04:27:00;1.60;;;1.50;;
11386;SDS011;5748;53.102;8.456;2022-08-03T04:29:32;1.73;;;1.63;;
11386;SDS011;5748;53.102;8.456;2022-08-03T04:32:03;1.57;;;1.47;;
11386;SDS011;5748;53.102;8.456;2022-08-03T04:34:31;1.80;;;1.70;;
11386;SDS011;5748;53.102;8.456;2022-08-03T04:36:59;2.10;;;1.90;;
11386;SDS011;5748;53.102;8.456;2022-08-03T04:39:31;1.80;;;1.70;;
11386;SDS011;5748;53.102;8.456;2022-08-03T04:42:00;1.90;;;1.80;;
11386;SDS011;5748;53.102;8.456;2022-08-03T04:44:31;2.00;;;1.80;;
11386;SDS011;5748;53.102;8.456;2022-08-03T04:47:10;1.70;;;1.60;;
11386;SDS011;5748;53.102;8.456;2022-08-03T04:49:37;1.93;;;1.80;;
11386;SDS011;5748;53.102;8.456;2022-08-03T04:52:06;2.20;;;2.00;;
11386;SDS011;5748;53.102;8.456;2022-08-03T04:54:38;1.70;;;1.60;;
11386;SDS011;5748;53.102;8.456;2022-08-03T04:57:07;1.87;;;1.77;;
11386;SDS011;5748;53.102;8.456;2022-08-03T04:59:35;2.07;;;1.87;;
11386;SDS011;5748;53.102;8.456;2022-08-03T05:02:02;2.13;;;1.70;;
11386;SDS011;5748;53.102;8.456;2022-08-03T05:04:31;2.00;;;1.90;;
11386;SDS011;5748;53.102;8.456;2022-08-03T05:06:58;1.63;;;1.53;;
11386;SDS011;5748;53.102;8.456;2022-08-03T05:09:25;1.93;;;1.80;;
11386;SDS011;5748;53.102;8.456;2022-08-03T05:11:51;1.90;;;1.70;;
11386;SDS011;5748;53.102;8.456;2022-08-03T05:14:20;1.97;;;1.77;;
11386;SDS011;5748;53.102;8.456;2022-08-03T05:16:48;1.80;;;1.70;;
11386;SDS011;5748;53.102;8.456;2022-08-03T05:19:15;2.00;;;1.80;;
11386;SDS011;5748;53.102;8.456;2022-08-03T05:21:48;1.90;;;1.80;;
11386;SDS011;5748;53.102;8.456;2022-08-03T05:24:15;2.03;;;1.90;;
11386;SDS011;5748;53.102;8.456;2022-08-03T05:26:42;2.03;;;1.70;;
11386;SDS011;5748;53.102;8.456;2022-08-03T05:29:09;2.27;;;2.07;;
11386;SDS011;5748;53.102;8.456;2022-08-03T05:31:37;1.93;;;1.83;;
11386;SDS011;5748;53.102;8.456;2022-08-03T05:34:04;2.80;;;2.13;;
11386;SDS011;5748;53.102;8.456;2022-08-03T05:36:31;1.97;;;1.87;;
11386;SDS011;5748;53.102;8.456;2022-08-03T05:38:58;2.07;;;1.97;;
11386;SDS011;5748;53.102;8.456;2022-08-03T05:41:32;2.20;;;2.00;;
11386;SDS011;5748;53.102;8.456;2022-08-03T05:43:59;1.75;;;1.65;;
11386;SDS011;5748;53.102;8.456;2022-08-03T05:46:26;2.13;;;1.95;;
11386;SDS011;5748;53.102;8.456;2022-08-03T05:48:56;2.03;;;1.83;;
11386;SDS011;5748;53.102;8.456;2022-08-03T05:51:46;2.55;;;1.65;;
11386;SDS011;5748;53.102;8.456;2022-08-03T05:54:49;1.88;;;1.77;;
11386;SDS011;5748;53.102;8.456;2022-08-03T05:57:16;2.10;;;1.90;;
11386;SDS011;5748;53.102;8.456;2022-08-03T05:59:43;2.17;;;1.60;;
11386;SDS011;5748;53.102;8.456;2022-08-03T06:02:10;1.60;;;1.50;;
11386;SDS011;5748;53.102;8.456;2022-08-03T06:04:39;1.75;;;1.63;;
11386;SDS011;5748;53.102;8.456;2022-08-03T06:07:06;1.60;;;1.50;;
11386;SDS011;5748;53.102;8.456;2022-08-03T06:09:33;1.63;;;1.52;;
11386;SDS011;5748;53.102;8.456;2022-08-03T06:12:00;1.60;;;1.50;;
11386;SDS011;5748;53.102;8.456;2022-08-03T06:14:27;1.50;;;1.40;;
11386;SDS011;5748;53.102;8.456;2022-08-03T06:17:00;1.48;;;1.38;;
11386;SDS011;5748;53.102;8.456;2022-08-03T06:19:27;1.40;;;1.27;;
11386;SDS011;5748;53.102;8.456;2022-08-03T06:21:55;1.38;;;1.27;;
11386;SDS011;5748;53.102;8.456;2022-08-03T06:24:22;1.33;;;1.23;;
11386;SDS011;5748;53.102;8.456;2022-08-03T06:26:49;1.08;;;1.05;;
11386;SDS011;5748;53.102;8.456;2022-08-03T06:29:16;1.40;;;1.30;;
11386;SDS011;5748;53.102;8.456;2022-08-03T06:31:43;1.67;;;1.30;;
11386;SDS011;5748;53.102;8.456;2022-08-03T06:34:10;1.35;;;1.25;;
11386;SDS011;5748;53.102;8.456;2022-08-03T06:36:37;1.77;;;1.30;;
11386;SDS011;5748;53.102;8.456;2022-08-03T06:39:06;1.60;;;1.50;;
11386;SDS011;5748;53.102;8.456;2022-08-03T06:41:33;1.60;;;1.50;;
11386;SDS011;5748;53.102;8.456;2022-08-03T06:44:00;1.73;;;1.40;;
11386;SDS011;5748;53.102;8.456;2022-08-03T06:46:28;2.88;;;1.30;;
11386;SDS011;5748;53.102;8.456;2022-08-03T06:48:55;1.42;;;1.33;;
11386;SDS011;5748;53.102;8.456;2022-08-03T06:51:22;1.75;;;1.27;;
11386;SDS011;5748;53.102;8.456;2022-08-03T06:53:49;1.42;;;1.20;;
11386;SDS011;5748;53.102;8.456;2022-08-03T06:56:23;2.45;;;1.20;;
11386;SDS011;5748;53.102;8.456;2022-08-03T06:58:50;1.30;;;1.20;;
11386;SDS011;5748;53.102;8.456;2022-08-03T07:01:17;1.77;;;1.10;;
11386;SDS011;5748;53.102;8.456;2022-08-03T07:03:55;1.38;;;1.05;;
11386;SDS011;5748;53.102;8.456;2022-08-03T07:06:24;2.40;;;1.30;;
11386;SDS011;5748;53.102;8.456;2022-08-03T07:08:51;1.95;;;1.30;;
11386;SDS011;5748;53.102;8.456;2022-08-03T07:11:18;1.30;;;1.20;;
11386;SDS011;5748;53.102;8.456;2022-08-03T07:13:51;2.33;;;1.40;;
11386;SDS011;5748;53.102;8.456;2022-08-03T07:16:18;1.10;;;1.00;;
11386;SDS011;5748;53.102;8.456;2022-08-03T07:18:46;1.25;;;1.15;;
11386;SDS011;5748;53.102;8.456;2022-08-03T07:21:13;1.17;;;1.08;;
11386;SDS011;5748;53.102;8.456;2022-08-03T07:23:41;1.00;;;1.00;;
11386;SDS011;5748;53.102;8.456;2022-08-03T07:26:08;1.45;;;1.30;;
11386;SDS011;5748;53.102;8.456;2022-08-03T07:28:35;1.35;;;1.20;;
11386;SDS011;5748;53.102;8.456;2022-08-03T07:31:22;1.85;;;1.30;;
11386;SDS011;5748;53.102;8.456;2022-08-03T07:33:49;1.48;;;1.30;;
11386;SDS011;5748;53.102;8.456;2022-08-03T07:36:16;1.20;;;1.10;;
11386;SDS011;5748;53.102;8.456;2022-08-03T07:38:43;1.35;;;1.05;;
11386;SDS011;5748;53.102;8.456;2022-08-03T07:41:10;4.38;;;1.23;;
11386;SDS011;5748;53.102;8.456;2022-08-03T07:43:38;1.65;;;1.20;;
11386;SDS011;5748;53.102;8.456;2022-08-03T07:46:05;1.20;;;1.10;;
11386;SDS011;5748;53.102;8.456;2022-08-03T07:59:05;2.05;;;1.35;;
11386;SDS011;5748;53.102;8.456;2022-08-03T08:05:13;1.90;;;1.10;;
11386;SDS011;5748;53.102;8.456;2022-08-03T08:08:01;1.38;;;1.00;;
11386;SDS011;5748;53.102;8.456;2022-08-03T08:10:29;2.15;;;1.15;;
11386;SDS011;5748;53.102;8.456;2022-08-03T08:12:59;2.15;;;0.93;;
11386;SDS011;5748;53.102;8.456;2022-08-03T08:15:27;1.00;;;0.90;;
11386;SDS011;5748;53.102;8.456;2022-08-03T08:18:00;2.53;;;1.00;;
11386;SDS011;5748;53.102;8.456;2022-08-03T08:20:28;1.83;;;0.90;;
11386;SDS011;5748;53.102;8.456;2022-08-03T08:22:58;2.67;;;1.30;;
11386;SDS011;5748;53.102;8.456;2022-08-03T08:25:26;1.77;;;1.20;;
11386;SDS011;5748;53.102;8.456;2022-08-03T08:27:53;1.60;;;1.10;;
11386;SDS011;5748;53.102;8.456;2022-08-03T08:30:23;1.05;;;0.90;;
11386;SDS011;5748;53.102;8.456;2022-08-03T08:32:50;2.03;;;1.27;;
11386;SDS011;5748;53.102;8.456;2022-08-03T08:35:18;1.20;;;1.10;;
11386;SDS011;5748;53.102;8.456;2022-08-03T08:37:45;1.20;;;1.10;;
11386;SDS011;5748;53.102;8.456;2022-08-03T08:40:12;1.67;;;1.05;;
11386;SDS011;5748;53.102;8.456;2022-08-03T08:42:40;1.30;;;1.20;;
11386;SDS011;5748;53.102;8.456;2022-08-03T08:45:09;2.00;;;1.30;;
11386;SDS011;5748;53.102;8.456;2022-08-03T08:47:42;1.15;;;1.00;;
11386;SDS011;5748;53.102;8.456;2022-08-03T08:50:11;1.30;;;1.20;;
11386;SDS011;5748;53.102;8.456;2022-08-03T08:52:48;2.08;;;1.33;;
11386;SDS011;5748;53.102;8.456;2022-08-03T08:55:19;3.55;;;1.30;;
11386;SDS011;5748;53.102;8.456;2022-08-03T08:57:49;1.63;;;1.38;;
11386;SDS011;5748;53.102;8.456;2022-08-03T09:00:20;1.75;;;1.20;;
11386;SDS011;5748;53.102;8.456;2022-08-03T09:02:49;2.05;;;1.40;;
11386;SDS011;5748;53.102;8.456;2022-08-03T09:05:17;1.25;;;1.13;;
11386;SDS011;5748;53.102;8.456;2022-08-03T09:07:45;1.45;;;1.33;;
11386;SDS011;5748;53.102;8.456;2022-08-03T09:10:14;2.15;;;1.35;;
11386;SDS011;5748;53.102;8.456;2022-08-03T09:12:45;1.58;;;1.40;;
11386;SDS011;5748;53.102;8.456;2022-08-03T09:15:15;1.90;;;1.25;;
11386;SDS011;5748;53.102;8.456;2022-08-03T09:17:45;3.25;;;1.70;;
11386;SDS011;5748;53.102;8.456;2022-08-03T09:20:24;1.30;;;1.20;;
11386;SDS011;5748;53.102;8.456;2022-08-03T09:22:56;5.38;;;1.40;;
11386;SDS011;5748;53.102;8.456;2022-08-03T09:25:26;1.30;;;1.20;;
11386;SDS011;5748;53.102;8.456;2022-08-03T09:28:02;1.73;;;1.27;;
11386;SDS011;5748;53.102;8.456;2022-08-03T09:30:32;1.52;;;1.38;;
11386;SDS011;5748;53.102;8.456;2022-08-03T09:33:01;1.58;;;1.30;;
11386;SDS011;5748;53.102;8.456;2022-08-03T09:35:31;2.40;;;1.40;;
11386;SDS011;5748;53.102;8.456;2022-08-03T09:41:08;1.48;;;1.20;;
11386;SDS011;5748;53.102;8.456;2022-08-03T09:43:44;2.05;;;1.13;;
11386;SDS011;5748;53.102;8.456;2022-08-03T09:46:12;1.27;;;1.17;;
11386;SDS011;5748;53.102;8.456;2022-08-03T09:48:40;2.17;;;1.55;;
11386;SDS011;5748;53.102;8.456;2022-08-03T09:51:08;1.95;;;1.20;;
11386;SDS011;5748;53.102;8.456;2022-08-03T09:53:40;2.00;;;1.40;;
11386;SDS011;5748;53.102;8.456;2022-08-03T09:56:14;2.03;;;1.30;;
11386;SDS011;5748;53.102;8.456;2022-08-03T09:58:45;1.52;;;1.25;;
11386;SDS011;5748;53.102;8.456;2022-08-03T10:01:14;3.83;;;1.30;;
11386;SDS011;5748;53.102;8.456;2022-08-03T10:03:41;1.75;;;1.30;;
11386;SDS011;5748;53.102;8.456;2022-08-03T10:06:17;3.15;;;1.30;;
11386;SDS011;5748;53.102;8.456;2022-08-03T10:08:46;1.70;;;1.60;;
11386;SDS011;5748;53.102;8.456;2022-08-03T10:11:31;1.95;;;1.23;;
11386;SDS011;5748;53.102;8.456;2022-08-03T10:13:59;1.30;;;1.20;;
11386;SDS011;5748;53.102;8.456;2022-08-03T10:16:29;2.17;;;1.38;;
11386;SDS011;5748;53.102;8.456;2022-08-03T10:19:05;1.90;;;1.10;;
11386;SDS011;5748;53.102;8.456;2022-08-03T10:21:36;1.30;;;1.20;;
11386;SDS011;5748;53.102;8.456;2022-08-03T10:24:23;1.50;;;1.30;;
11386;SDS011;5748;53.102;8.456;2022-08-03T10:26:52;2.10;;;1.13;;
11386;SDS011;5748;53.102;8.456;2022-08-03T10:29:27;1.38;;;1.15;;
11386;SDS011;5748;53.102;8.456;2022-08-03T10:31:57;1.23;;;1.10;;
11386;SDS011;5748;53.102;8.456;2022-08-03T10:37:08;1.27;;;1.17;;
11386;SDS011;5748;53.102;8.456;2022-08-03T10:39:38;1.80;;;1.30;;
11386;SDS011;5748;53.102;8.456;2022-08-03T10:42:18;1.83;;;1.10;;
11386;SDS011;5748;53.102;8.456;2022-08-03T10:44:52;1.05;;;1.02;;
11386;SDS011;5748;53.102;8.456;2022-08-03T10:47:32;1.00;;;0.85;;
11386;SDS011;5748;53.102;8.456;2022-08-03T10:50:00;1.40;;;1.30;;
11386;SDS011;5748;53.102;8.456;2022-08-03T10:52:30;0.90;;;0.90;;
11386;SDS011;5748;53.102;8.456;2022-08-03T10:54:57;1.45;;;0.95;;
11386;SDS011;5748;53.102;8.456;2022-08-03T10:57:42;4.35;;;1.20;;
11386;SDS011;5748;53.102;8.456;2022-08-03T11:00:15;1.60;;;1.10;;
11386;SDS011;5748;53.102;8.456;2022-08-03T11:05:48;1.20;;;0.80;;
11386;SDS011;5748;53.102;8.456;2022-08-03T11:13:55;1.02;;;0.90;;
11386;SDS011;5748;53.102;8.456;2022-08-03T11:16:25;1.42;;;1.10;;
11386;SDS011;5748;53.102;8.456;2022-08-03T11:18:54;1.25;;;0.80;;
11386;SDS011;5748;53.102;8.456;2022-08-03T11:27:28;0.88;;;0.75;;
11386;SDS011;5748;53.102;8.456;2022-08-03T11:29:58;2.25;;;0.93;;
11386;SDS011;5748;53.102;8.456;2022-08-03T11:35:20;2.03;;;0.90;;
11386;SDS011;5748;53.102;8.456;2022-08-03T11:38:02;2.58;;;0.95;;
11386;SDS011;5748;53.102;8.456;2022-08-03T11:40:33;1.00;;;0.90;;
11386;SDS011;5748;53.102;8.456;2022-08-03T11:43:04;1.05;;;0.95;;
11386;SDS011;5748;53.102;8.456;2022-08-03T11:45:32;1.25;;;1.05;;
11386;SDS011;5748;53.102;8.456;2022-08-03T11:48:01;0.80;;;0.80;;
11386;SDS011;5748;53.102;8.456;2022-08-03T11:50:41;1.83;;;1.00;;
11386;SDS011;5748;53.102;8.456;2022-08-03T11:53:13;1.67;;;0.90;;
11386;SDS011;5748;53.102;8.456;2022-08-03T11:55:44;1.90;;;1.00;;
11386;SDS011;5748;53.102;8.456;2022-08-03T11:58:14;1.00;;;0.82;;
11386;SDS011;5748;53.102;8.456;2022-08-03T12:00:43;1.25;;;0.80;;
11386;SDS011;5748;53.102;8.456;2022-08-03T12:03:11;1.27;;;0.80;;
11386;SDS011;5748;53.102;8.456;2022-08-03T12:05:44;2.85;;;0.93;;
11386;SDS011;5748;53.102;8.456;2022-08-03T12:08:15;1.00;;;0.75;;
11386;SDS011;5748;53.102;8.456;2022-08-03T12:10:46;0.80;;;0.80;;
11386;SDS011;5748;53.102;8.456;2022-08-03T12:13:16;1.20;;;0.90;;
11386;SDS011;5748;53.102;8.456;2022-08-03T12:15:49;1.63;;;0.90;;
11386;SDS011;5748;53.102;8.456;2022-08-03T12:18:19;0.70;;;0.70;;
11386;SDS011;5748;53.102;8.456;2022-08-03T12:20:48;1.73;;;0.90;;
11386;SDS011;5748;53.102;8.456;2022-08-03T12:23:17;1.05;;;0.82;;
11386;SDS011;5748;53.102;8.456;2022-08-03T12:25:46;0.77;;;0.70;;
11386;SDS011;5748;53.102;8.456;2022-08-03T12:28:15;1.65;;;0.90;;
11386;SDS011;5748;53.102;8.456;2022-08-03T12:30:45;1.27;;;0.85;;
11386;SDS011;5748;53.102;8.456;2022-08-03T12:33:16;1.13;;;0.80;;
11386;SDS011;5748;53.102;8.456;2022-08-03T12:35:47;1.27;;;0.90;;
11386;SDS011;5748;53.102;8.456;2022-08-03T12:38:20;1.30;;;0.88;;
11386;SDS011;5748;53.102;8.456;2022-08-03T12:41:01;1.70;;;0.80;;
11386;SDS011;5748;53.102;8.456;2022-08-03T12:43:30;1.35;;;1.00;;
11386;SDS011;5748;53.102;8.456;2022-08-03T12:46:12;1.70;;;1.00;;
11386;SDS011;5748;53.102;8.456;2022-08-03T12:51:32;0.88;;;0.70;;
11386;SDS011;5748;53.102;8.456;2022-08-03T12:54:01;1.13;;;0.80;;
11386;SDS011;5748;53.102;8.456;2022-08-03T12:56:31;0.82;;;0.70;;
11386;SDS011;5748;53.102;8.456;2022-08-03T12:58:59;1.10;;;0.80;;
11386;SDS011;5748;53.102;8.456;2022-08-03T13:01:35;0.90;;;0.90;;
11386;SDS011;5748;53.102;8.456;2022-08-03T13:04:03;1.00;;;0.80;;
11386;SDS011;5748;53.102;8.456;2022-08-03T13:06:30;0.80;;;0.70;;
11386;SDS011;5748;53.102;8.456;2022-08-03T13:11:48;0.80;;;0.70;;
11386;SDS011;5748;53.102;8.456;2022-08-03T13:14:40;1.50;;;0.80;;
11386;SDS011;5748;53.102;8.456;2022-08-03T13:17:08;1.45;;;0.90;;
11386;SDS011;5748;53.102;8.456;2022-08-03T13:19:36;0.93;;;0.73;;
11386;SDS011;5748;53.102;8.456;2022-08-03T13:22:10;1.30;;;0.90;;
11386;SDS011;5748;53.102;8.456;2022-08-03T13:24:51;1.30;;;0.80;;
11386;SDS011;5748;53.102;8.456;2022-08-03T13:27:21;1.25;;;1.02;;
11386;SDS011;5748;53.102;8.456;2022-08-03T13:29:55;1.48;;;1.30;;
11386;SDS011;5748;53.102;8.456;2022-08-03T13:32:24;1.58;;;1.20;;
11386;SDS011;5748;53.102;8.456;2022-08-03T13:34:51;1.55;;;1.02;;
11386;SDS011;5748;53.102;8.456;2022-08-03T13:37:18;1.55;;;1.27;;
11386;SDS011;5748;53.102;8.456;2022-08-03T13:42:17;1.92;;;1.30;;
11386;SDS011;5748;53.102;8.456;2022-08-03T13:47:21;2.45;;;1.00;;
11386;SDS011;5748;53.102;8.456;2022-08-03T13:49:49;1.60;;;0.73;;
11386;SDS011;5748;53.102;8.456;2022-08-03T13:52:17;2.08;;;1.00;;
11386;SDS011;5748;53.102;8.456;2022-08-03T13:54:44;1.60;;;0.98;;
11386;SDS011;5748;53.102;8.456;2022-08-03T13:57:11;1.33;;;0.77;;
11386;SDS011;5748;53.102;8.456;2022-08-03T13:59:38;1.08;;;0.80;;
11386;SDS011;5748;53.102;8.456;2022-08-03T14:02:06;1.92;;;0.98;;
11386;SDS011;5748;53.102;8.456;2022-08-03T14:04:34;1.50;;;0.70;;
11386;SDS011;5748;53.102;8.456;2022-08-03T14:07:03;2.25;;;0.93;;
11386;SDS011;5748;53.102;8.456;2022-08-03T14:09:30;1.17;;;0.90;;
11386;SDS011;5748;53.102;8.456;2022-08-03T14:11:57;1.20;;;0.90;;
11386;SDS011;5748;53.102;8.456;2022-08-03T14:14:25;1.55;;;0.95;;
11386;SDS011;5748;53.102;8.456;2022-08-03T14:16:52;1.10;;;0.80;;
11386;SDS011;5748;53.102;8.456;2022-08-03T14:19:21;2.47;;;0.90;;
11386;SDS011;5748;53.102;8.456;2022-08-03T14:21:48;1.80;;;0.98;;
11386;SDS011;5748;53.102;8.456;2022-08-03T14:24:15;1.55;;;0.90;;
11386;SDS011;5748;53.102;8.456;2022-08-03T14:29:52;1.70;;;1.00;;
11386;SDS011;5748;53.102;8.456;2022-08-03T14:32:23;1.50;;;0.80;;
11386;SDS011;5748;53.102;8.456;2022-08-03T14:34:52;0.73;;;0.60;;
11386;SDS011;5748;53.102;8.456;2022-08-03T14:37:36;1.65;;;0.88;;
11386;SDS011;5748;53.102;8.456;2022-08-03T14:45:58;1.90;;;0.88;;
11386;SDS011;5748;53.102;8.456;2022-08-03T14:48:25;1.50;;;0.80;;
11386;SDS011;5748;53.102;8.456;2022-08-03T14:50:53;1.52;;;0.98;;
11386;SDS011;5748;53.102;8.456;2022-08-03T14:53:21;1.80;;;0.90;;
11386;SDS011;5748;53.102;8.456;2022-08-03T14:55:49;1.63;;;0.82;;
11386;SDS011;5748;53.102;8.456;2022-08-03T14:58:18;1.73;;;0.90;;
11386;SDS011;5748;53.102;8.456;2022-08-03T15:00:46;1.05;;;0.70;;
11386;SDS011;5748;53.102;8.456;2022-08-03T15:03:19;1.55;;;0.75;;
11386;SDS011;5748;53.102;8.456;2022-08-03T15:05:48;2.30;;;0.75;;
11386;SDS011;5748;53.102;8.456;2022-08-03T15:08:18;2.15;;;0.70;;
11386;SDS011;5748;53.102;8.456;2022-08-03T15:10:46;0.80;;;0.63;;
11386;SDS011;5748;53.102;8.456;2022-08-03T15:13:13;1.35;;;0.60;;
11386;SDS011;5748;53.102;8.456;2022-08-03T15:15:40;1.40;;;0.70;;
11386;SDS011;5748;53.102;8.456;2022-08-03T15:18:08;0.73;;;0.70;;
11386;SDS011;5748;53.102;8.456;2022-08-03T15:20:35;2.25;;;0.80;;
11386;SDS011;5748;53.102;8.456;2022-08-03T15:23:02;3.40;;;1.00;;
11386;SDS011;5748;53.102;8.456;2022-08-03T15:25:30;1.95;;;0.90;;
11386;SDS011;5748;53.102;8.456;2022-08-03T15:27:57;4.15;;;1.00;;
11386;SDS011;5748;53.102;8.456;2022-08-03T15:30:24;1.67;;;0.70;;
11386;SDS011;5748;53.102;8.456;2022-08-03T15:32:51;1.05;;;0.70;;
11386;SDS011;5748;53.102;8.456;2022-08-03T15:35:18;1.50;;;0.80;;
11386;SDS011;5748;53.102;8.456;2022-08-03T15:37:45;1.30;;;0.77;;
11386;SDS011;5748;53.102;8.456;2022-08-03T15:40:12;0.90;;;0.70;;
11386;SDS011;5748;53.102;8.456;2022-08-03T15:42:41;1.88;;;0.75;;
11386;SDS011;5748;53.102;8.456;2022-08-03T15:45:09;1.95;;;0.80;;
11386;SDS011;5748;53.102;8.456;2022-08-03T15:47:37;2.45;;;0.73;;
11386;SDS011;5748;53.102;8.456;2022-08-03T15:50:04;1.23;;;0.70;;
11386;SDS011;5748;53.102;8.456;2022-08-03T15:52:31;1.67;;;0.80;;
11386;SDS011;5748;53.102;8.456;2022-08-03T15:54:58;1.48;;;0.70;;
11386;SDS011;5748;53.102;8.456;2022-08-03T15:57:25;1.23;;;0.68;;
11386;SDS011;5748;53.102;8.456;2022-08-03T15:59:54;1.50;;;0.68;;
11386;SDS011;5748;53.102;8.456;2022-08-03T16:02:21;2.13;;;0.88;;
11386;SDS011;5748;53.102;8.456;2022-08-03T16:04:48;2.67;;;0.77;;
11386;SDS011;5748;53.102;8.456;2022-08-03T16:07:16;2.05;;;0.85;;
11386;SDS011;5748;53.102;8.456;2022-08-03T16:10:04;1.38;;;0.98;;
11386;SDS011;5748;53.102;8.456;2022-08-03T16:12:39;1.10;;;0.60;;
11386;SDS011;5748;53.102;8.456;2022-08-03T16:15:08;3.30;;;0.98;;
11386;SDS011;5748;53.102;8.456;2022-08-03T16:17:37;1.05;;;0.60;;
11386;SDS011;5748;53.102;8.456;2022-08-03T16:20:04;1.42;;;0.80;;
11386;SDS011;5748;53.102;8.456;2022-08-03T16:22:36;1.92;;;0.65;;
11386;SDS011;5748;53.102;8.456;2022-08-03T16:25:08;1.58;;;0.77;;
11386;SDS011;5748;53.102;8.456;2022-08-03T16:27:35;1.50;;;0.60;;
11386;SDS011;5748;53.102;8.456;2022-08-03T16:30:04;1.80;;;0.82;;
11386;SDS011;5748;53.102;8.456;2022-08-03T16:32:39;2.00;;;0.73;;
11386;SDS011;5748;53.102;8.456;2022-08-03T16:35:14;1.25;;;0.85;;
11386;SDS011;5748;53.102;8.456;2022-08-03T16:37:41;1.23;;;0.80;;
11386;SDS011;5748;53.102;8.456;2022-08-03T16:40:14;1.02;;;0.70;;
11386;SDS011;5748;53.102;8.456;2022-08-03T16:42:41;1.27;;;0.80;;
11386;SDS011;5748;53.102;8.456;2022-08-03T16:45:09;2.10;;;1.05;;
11386;SDS011;5748;53.102;8.456;2022-08-03T16:47:45;2.58;;;0.90;;
11386;SDS011;5748;53.102;8.456;2022-08-03T16:50:12;3.50;;;0.90;;
11386;SDS011;5748;53.102;8.456;2022-08-03T16:52:39;1.58;;;0.90;;
11386;SDS011;5748;53.102;8.456;2022-08-03T16:55:07;1.30;;;0.52;;
11386;SDS011;5748;53.102;8.456;2022-08-03T16:57:37;1.77;;;0.82;;
11386;SDS011;5748;53.102;8.456;2022-08-03T17:00:05;2.05;;;1.00;;
11386;SDS011;5748;53.102;8.456;2022-08-03T17:02:46;2.47;;;0.80;;
11386;SDS011;5748;53.102;8.456;2022-08-03T17:05:33;0.95;;;0.68;;